Terminal Aerodrome Forecast
Issued by NWS

Home | Current Version | Previous Version | Text Only | Print | Product List | Glossary On
Versions: 1 2 3 4 5 6 7 8 9 10 11 12 13 14 15 16 17 18 19 20 21 22 23 24 25 26 27 28 29 30 31 32 33 34 35 36 37 38 39 40 41 42 43 44 45 46 47 48 49
437
FTUS43 KDDC 190520
TAFHYS
TAF
KHYS 190520Z 1906/2006 17009KT P6SM SCT250
     FM191000 18009KT 3SM BR BKN020
      TEMPO 1911/1914 1SM BR BKN008
     FM191600 18011KT P6SM SCT025
     FM191900 16014G24KT P6SM BKN090=

USA.gov is the U.S. government's official web portal to all federal, state and local government web resources and services.